sensor_id;sensor_type;location;lat;lon;timestamp;temperature;humidity
20732;DHT22;10527;52.124;5.196;2022-10-16T00:01:36;13.90;99.90
20732;DHT22;10527;52.124;5.196;2022-10-16T00:04:04;13.80;99.90
20732;DHT22;10527;52.124;5.196;2022-10-16T00:06:31;13.80;99.90
20732;DHT22;10527;52.124;5.196;2022-10-16T00:08:59;13.80;99.90
20732;DHT22;10527;52.124;5.196;2022-10-16T00:11:31;13.80;99.90
20732;DHT22;10527;52.124;5.196;2022-10-16T00:14:02;13.70;99.90
20732;DHT22;10527;52.124;5.196;2022-10-16T00:16:33;13.80;99.90
20732;DHT22;10527;52.124;5.196;2022-10-16T00:19:01;13.80;99.90
20732;DHT22;10527;52.124;5.196;2022-10-16T00:21:29;13.70;99.90
20732;DHT22;10527;52.124;5.196;2022-10-16T00:24:00;13.70;99.90
20732;DHT22;10527;52.124;5.196;2022-10-16T00:26:31;13.70;99.90
20732;DHT22;10527;52.124;5.196;2022-10-16T00:28:59;13.70;99.90
20732;DHT22;10527;52.124;5.196;2022-10-16T00:31:27;13.80;99.90
20732;DHT22;10527;52.124;5.196;2022-10-16T00:33:54;13.70;99.90
20732;DHT22;10527;52.124;5.196;2022-10-16T00:36:22;13.80;99.90
20732;DHT22;10527;52.124;5.196;2022-10-16T00:38:52;13.70;99.90
20732;DHT22;10527;52.124;5.196;2022-10-16T00:41:24;13.80;99.90
20732;DHT22;10527;52.124;5.196;2022-10-16T00:43:59;13.70;99.90
20732;DHT22;10527;52.124;5.196;2022-10-16T00:46:46;13.70;99.90
20732;DHT22;10527;52.124;5.196;2022-10-16T00:49:15;13.70;99.90
20732;DHT22;10527;52.124;5.196;2022-10-16T00:51:47;13.70;99.90
20732;DHT22;10527;52.124;5.196;2022-10-16T00:54:25;13.70;99.90
20732;DHT22;10527;52.124;5.196;2022-10-16T00:56:57;13.70;99.90
20732;DHT22;10527;52.124;5.196;2022-10-16T00:59:38;13.70;99.90
20732;DHT22;10527;52.124;5.196;2022-10-16T01:02:10;13.70;99.90
20732;DHT22;10527;52.124;5.196;2022-10-16T01:04:42;13.70;99.90
20732;DHT22;10527;52.124;5.196;2022-10-16T01:07:14;13.80;99.90
20732;DHT22;10527;52.124;5.196;2022-10-16T01:10:02;13.80;99.90
20732;DHT22;10527;52.124;5.196;2022-10-16T01:18:06;13.90;99.90
20732;DHT22;10527;52.124;5.196;2022-10-16T01:20:44;13.90;99.90
20732;DHT22;10527;52.124;5.196;2022-10-16T01:23:43;13.90;99.90
20732;DHT22;10527;52.124;5.196;2022-10-16T01:32:15;13.90;99.90
20732;DHT22;10527;52.124;5.196;2022-10-16T01:35:15;13.90;99.90
20732;DHT22;10527;52.124;5.196;2022-10-16T01:37:51;13.90;99.90
20732;DHT22;10527;52.124;5.196;2022-10-16T01:40:27;13.90;99.90
20732;DHT22;10527;52.124;5.196;2022-10-16T01:43:00;13.90;99.90
20732;DHT22;10527;52.124;5.196;2022-10-16T01:45:47;13.90;99.90
20732;DHT22;10527;52.124;5.196;2022-10-16T01:48:17;13.90;99.90
20732;DHT22;10527;52.124;5.196;2022-10-16T01:50:54;13.90;99.90
20732;DHT22;10527;52.124;5.196;2022-10-16T01:53:26;14.00;99.90
20732;DHT22;10527;52.124;5.196;2022-10-16T01:55:55;14.00;99.90
20732;DHT22;10527;52.124;5.196;2022-10-16T01:58:25;13.90;99.90
20732;DHT22;10527;52.124;5.196;2022-10-16T02:00:54;14.00;99.90
20732;DHT22;10527;52.124;5.196;2022-10-16T02:03:22;13.90;99.90
20732;DHT22;10527;52.124;5.196;2022-10-16T02:05:52;13.90;99.90
20732;DHT22;10527;52.124;5.196;2022-10-16T02:08:35;13.90;99.90
20732;DHT22;10527;52.124;5.196;2022-10-16T02:11:03;13.90;99.90
20732;DHT22;10527;52.124;5.196;2022-10-16T02:13:57;13.90;99.90
20732;DHT22;10527;52.124;5.196;2022-10-16T02:16:39;13.90;99.90
20732;DHT22;10527;52.124;5.196;2022-10-16T02:19:08;13.90;99.90
20732;DHT22;10527;52.124;5.196;2022-10-16T02:21:42;13.80;99.90
20732;DHT22;10527;52.124;5.196;2022-10-16T02:24:33;13.70;99.90
20732;DHT22;10527;52.124;5.196;2022-10-16T02:27:41;13.80;99.90
20732;DHT22;10527;52.124;5.196;2022-10-16T02:30:45;13.70;99.90
20732;DHT22;10527;52.124;5.196;2022-10-16T02:33:18;13.70;99.90
20732;DHT22;10527;52.124;5.196;2022-10-16T02:35:49;13.70;99.90
20732;DHT22;10527;52.124;5.196;2022-10-16T02:38:18;13.60;99.90
20732;DHT22;10527;52.124;5.196;2022-10-16T02:40:47;13.60;99.90
20732;DHT22;10527;52.124;5.196;2022-10-16T02:43:14;13.60;99.90
20732;DHT22;10527;52.124;5.196;2022-10-16T02:45:42;13.70;99.90
20732;DHT22;10527;52.124;5.196;2022-10-16T02:48:09;13.60;99.90
20732;DHT22;10527;52.124;5.196;2022-10-16T02:50:35;13.60;99.90
20732;DHT22;10527;52.124;5.196;2022-10-16T02:53:02;13.70;99.90
20732;DHT22;10527;52.124;5.196;2022-10-16T02:55:29;13.70;99.90
20732;DHT22;10527;52.124;5.196;2022-10-16T02:57:56;13.70;99.90
20732;DHT22;10527;52.124;5.196;2022-10-16T03:00:23;13.70;99.90
20732;DHT22;10527;52.124;5.196;2022-10-16T03:02:49;13.60;99.90
20732;DHT22;10527;52.124;5.196;2022-10-16T03:05:16;13.70;99.90
20732;DHT22;10527;52.124;5.196;2022-10-16T03:07:44;13.70;99.90
20732;DHT22;10527;52.124;5.196;2022-10-16T03:10:10;13.70;99.90
20732;DHT22;10527;52.124;5.196;2022-10-16T03:12:37;13.70;99.90
20732;DHT22;10527;52.124;5.196;2022-10-16T03:15:04;13.70;99.90
20732;DHT22;10527;52.124;5.196;2022-10-16T03:17:32;13.60;99.90
20732;DHT22;10527;52.124;5.196;2022-10-16T03:19:59;13.60;99.90
20732;DHT22;10527;52.124;5.196;2022-10-16T03:22:25;13.70;99.90
20732;DHT22;10527;52.124;5.196;2022-10-16T03:24:52;13.70;99.90
20732;DHT22;10527;52.124;5.196;2022-10-16T03:27:19;13.60;99.90
20732;DHT22;10527;52.124;5.196;2022-10-16T03:29:46;13.60;99.90
20732;DHT22;10527;52.124;5.196;2022-10-16T03:32:14;13.60;99.90
20732;DHT22;10527;52.124;5.196;2022-10-16T03:34:40;13.60;99.90
20732;DHT22;10527;52.124;5.196;2022-10-16T03:37:07;13.60;99.90
20732;DHT22;10527;52.124;5.196;2022-10-16T03:39:37;13.60;99.90
20732;DHT22;10527;52.124;5.196;2022-10-16T03:42:04;13.60;99.90
20732;DHT22;10527;52.124;5.196;2022-10-16T03:44:30;13.60;99.90
20732;DHT22;10527;52.124;5.196;2022-10-16T03:46:57;13.50;99.90
20732;DHT22;10527;52.124;5.196;2022-10-16T03:49:26;13.50;99.90
20732;DHT22;10527;52.124;5.196;2022-10-16T03:51:54;13.50;99.90
20732;DHT22;10527;52.124;5.196;2022-10-16T03:54:21;13.40;99.90
20732;DHT22;10527;52.124;5.196;2022-10-16T03:56:48;13.50;99.90
20732;DHT22;10527;52.124;5.196;2022-10-16T03:59:15;13.40;99.90
20732;DHT22;10527;52.124;5.196;2022-10-16T04:01:42;13.40;99.90
20732;DHT22;10527;52.124;5.196;2022-10-16T04:04:08;13.40;99.90
20732;DHT22;10527;52.124;5.196;2022-10-16T04:06:35;13.40;99.90
20732;DHT22;10527;52.124;5.196;2022-10-16T04:09:02;13.40;99.90
20732;DHT22;10527;52.124;5.196;2022-10-16T04:11:29;13.40;99.90
20732;DHT22;10527;52.124;5.196;2022-10-16T04:13:56;13.40;99.90
20732;DHT22;10527;52.124;5.196;2022-10-16T04:16:22;13.50;99.90
20732;DHT22;10527;52.124;5.196;2022-10-16T04:18:49;13.50;99.90
20732;DHT22;10527;52.124;5.196;2022-10-16T04:21:16;13.50;99.90
20732;DHT22;10527;52.124;5.196;2022-10-16T04:23:42;13.50;99.90
20732;DHT22;10527;52.124;5.196;2022-10-16T04:26:09;13.40;99.90
20732;DHT22;10527;52.124;5.196;2022-10-16T04:28:36;13.50;99.90
20732;DHT22;10527;52.124;5.196;2022-10-16T04:31:06;13.50;99.90
20732;DHT22;10527;52.124;5.196;2022-10-16T04:33:33;13.40;99.90
20732;DHT22;10527;52.124;5.196;2022-10-16T04:36:01;13.40;99.90
20732;DHT22;10527;52.124;5.196;2022-10-16T04:38:30;13.40;99.90
20732;DHT22;10527;52.124;5.196;2022-10-16T04:40:57;13.40;99.90
20732;DHT22;10527;52.124;5.196;2022-10-16T04:43:23;13.40;99.90
20732;DHT22;10527;52.124;5.196;2022-10-16T04:45:50;13.40;99.90
20732;DHT22;10527;52.124;5.196;2022-10-16T04:48:18;13.30;99.90
20732;DHT22;10527;52.124;5.196;2022-10-16T04:50:45;13.30;99.90
20732;DHT22;10527;52.124;5.196;2022-10-16T04:53:16;13.30;99.90
20732;DHT22;10527;52.124;5.196;2022-10-16T04:55:42;13.20;99.90
20732;DHT22;10527;52.124;5.196;2022-10-16T04:58:10;13.30;99.90
20732;DHT22;10527;52.124;5.196;2022-10-16T05:00:36;13.30;99.90
20732;DHT22;10527;52.124;5.196;2022-10-16T05:03:04;13.30;99.90
20732;DHT22;10527;52.124;5.196;2022-10-16T05:05:45;13.30;99.90
20732;DHT22;10527;52.124;5.196;2022-10-16T05:08:13;13.20;99.90
20732;DHT22;10527;52.124;5.196;2022-10-16T05:10:42;13.20;99.90
20732;DHT22;10527;52.124;5.196;2022-10-16T05:13:10;13.20;99.90
20732;DHT22;10527;52.124;5.196;2022-10-16T05:15:37;13.20;99.90
20732;DHT22;10527;52.124;5.196;2022-10-16T05:18:05;13.20;99.90
20732;DHT22;10527;52.124;5.196;2022-10-16T05:20:32;13.20;99.90
20732;DHT22;10527;52.124;5.196;2022-10-16T05:22:59;13.20;99.90
20732;DHT22;10527;52.124;5.196;2022-10-16T05:25:26;13.20;99.90
20732;DHT22;10527;52.124;5.196;2022-10-16T05:27:53;13.20;99.90
20732;DHT22;10527;52.124;5.196;2022-10-16T05:30:19;13.20;99.90
20732;DHT22;10527;52.124;5.196;2022-10-16T05:32:48;13.10;99.90
20732;DHT22;10527;52.124;5.196;2022-10-16T05:35:16;13.20;99.90
20732;DHT22;10527;52.124;5.196;2022-10-16T05:37:44;13.20;99.90
20732;DHT22;10527;52.124;5.196;2022-10-16T05:40:11;13.20;99.90
20732;DHT22;10527;52.124;5.196;2022-10-16T05:42:40;13.30;99.90
20732;DHT22;10527;52.124;5.196;2022-10-16T05:45:10;13.20;99.90
20732;DHT22;10527;52.124;5.196;2022-10-16T05:47:38;13.20;99.90
20732;DHT22;10527;52.124;5.196;2022-10-16T05:50:06;13.20;99.90
20732;DHT22;10527;52.124;5.196;2022-10-16T05:52:34;13.20;99.90
20732;DHT22;10527;52.124;5.196;2022-10-16T05:55:00;13.20;99.90
20732;DHT22;10527;52.124;5.196;2022-10-16T05:57:27;13.30;99.90
20732;DHT22;10527;52.124;5.196;2022-10-16T05:59:54;13.30;99.90
20732;DHT22;10527;52.124;5.196;2022-10-16T06:02:21;13.30;99.90
20732;DHT22;10527;52.124;5.196;2022-10-16T06:04:48;13.40;99.90
20732;DHT22;10527;52.124;5.196;2022-10-16T06:07:15;13.30;99.90
20732;DHT22;10527;52.124;5.196;2022-10-16T06:09:42;13.30;99.90
20732;DHT22;10527;52.124;5.196;2022-10-16T06:12:08;13.30;99.90
20732;DHT22;10527;52.124;5.196;2022-10-16T06:14:35;13.30;99.90
20732;DHT22;10527;52.124;5.196;2022-10-16T06:17:02;13.30;99.90
20732;DHT22;10527;52.124;5.196;2022-10-16T06:19:28;13.30;99.90
20732;DHT22;10527;52.124;5.196;2022-10-16T06:21:55;13.30;99.90
20732;DHT22;10527;52.124;5.196;2022-10-16T06:24:24;13.30;99.90
20732;DHT22;10527;52.124;5.196;2022-10-16T06:26:52;13.30;99.90
20732;DHT22;10527;52.124;5.196;2022-10-16T06:29:18;13.40;99.90
20732;DHT22;10527;52.124;5.196;2022-10-16T06:31:45;13.40;99.90
20732;DHT22;10527;52.124;5.196;2022-10-16T06:34:12;13.30;99.90
20732;DHT22;10527;52.124;5.196;2022-10-16T06:36:41;13.30;99.90
20732;DHT22;10527;52.124;5.196;2022-10-16T06:39:10;13.30;99.90
20732;DHT22;10527;52.124;5.196;2022-10-16T06:41:36;13.30;99.90
20732;DHT22;10527;52.124;5.196;2022-10-16T06:44:07;13.30;99.90
20732;DHT22;10527;52.124;5.196;2022-10-16T06:46:34;13.30;99.90
20732;DHT22;10527;52.124;5.196;2022-10-16T06:49:01;13.30;99.90
20732;DHT22;10527;52.124;5.196;2022-10-16T06:51:28;13.20;99.90
20732;DHT22;10527;52.124;5.196;2022-10-16T06:53:55;13.30;99.90
20732;DHT22;10527;52.124;5.196;2022-10-16T06:56:31;13.30;99.90
20732;DHT22;10527;52.124;5.196;2022-10-16T06:58:59;13.30;99.90
20732;DHT22;10527;52.124;5.196;2022-10-16T07:01:27;13.30;99.90
20732;DHT22;10527;52.124;5.196;2022-10-16T07:03:55;13.30;99.90
20732;DHT22;10527;52.124;5.196;2022-10-16T07:06:24;13.30;99.90
20732;DHT22;10527;52.124;5.196;2022-10-16T07:08:52;13.30;99.90
20732;DHT22;10527;52.124;5.196;2022-10-16T07:11:21;13.30;99.90
20732;DHT22;10527;52.124;5.196;2022-10-16T07:13:50;13.40;99.90
20732;DHT22;10527;52.124;5.196;2022-10-16T07:16:24;13.40;99.90
20732;DHT22;10527;52.124;5.196;2022-10-16T07:18:57;13.40;99.90
20732;DHT22;10527;52.124;5.196;2022-10-16T07:21:34;13.40;99.90
20732;DHT22;10527;52.124;5.196;2022-10-16T07:24:11;13.40;99.90
20732;DHT22;10527;52.124;5.196;2022-10-16T07:26:44;13.50;99.90
20732;DHT22;10527;52.124;5.196;2022-10-16T07:29:15;13.40;99.90
20732;DHT22;10527;52.124;5.196;2022-10-16T07:31:45;13.50;99.90
20732;DHT22;10527;52.124;5.196;2022-10-16T07:34:15;13.50;99.90
20732;DHT22;10527;52.124;5.196;2022-10-16T07:36:43;13.60;99.90
20732;DHT22;10527;52.124;5.196;2022-10-16T07:39:09;13.50;99.90
20732;DHT22;10527;52.124;5.196;2022-10-16T07:41:36;13.60;99.90
20732;DHT22;10527;52.124;5.196;2022-10-16T07:44:03;13.60;99.90
20732;DHT22;10527;52.124;5.196;2022-10-16T07:46:31;13.60;99.90
20732;DHT22;10527;52.124;5.196;2022-10-16T07:48:59;13.50;99.90
20732;DHT22;10527;52.124;5.196;2022-10-16T07:51:26;13.60;99.90
20732;DHT22;10527;52.124;5.196;2022-10-16T07:54:13;13.60;99.90
20732;DHT22;10527;52.124;5.196;2022-10-16T07:56:40;13.60;99.90
20732;DHT22;10527;52.124;5.196;2022-10-16T07:59:09;13.60;99.90
20732;DHT22;10527;52.124;5.196;2022-10-16T08:01:38;13.60;99.90
20732;DHT22;10527;52.124;5.196;2022-10-16T08:04:05;13.70;99.90
20732;DHT22;10527;52.124;5.196;2022-10-16T08:06:35;13.60;99.90
20732;DHT22;10527;52.124;5.196;2022-10-16T08:09:07;13.70;99.90
20732;DHT22;10527;52.124;5.196;2022-10-16T08:11:35;13.80;99.90
20732;DHT22;10527;52.124;5.196;2022-10-16T08:14:02;13.70;99.90
20732;DHT22;10527;52.124;5.196;2022-10-16T08:16:28;13.70;99.90
20732;DHT22;10527;52.124;5.196;2022-10-16T08:18:55;13.80;99.90
20732;DHT22;10527;52.124;5.196;2022-10-16T08:21:22;13.80;99.90
20732;DHT22;10527;52.124;5.196;2022-10-16T08:23:50;13.80;99.90
20732;DHT22;10527;52.124;5.196;2022-10-16T08:26:24;13.90;99.90
20732;DHT22;10527;52.124;5.196;2022-10-16T08:28:53;13.90;99.90
20732;DHT22;10527;52.124;5.196;2022-10-16T08:31:20;13.90;99.90
20732;DHT22;10527;52.124;5.196;2022-10-16T08:33:47;14.00;99.90
20732;DHT22;10527;52.124;5.196;2022-10-16T08:36:15;14.00;99.90
20732;DHT22;10527;52.124;5.196;2022-10-16T08:38:42;14.00;99.90
20732;DHT22;10527;52.124;5.196;2022-10-16T08:43:52;14.10;99.90
20732;DHT22;10527;52.124;5.196;2022-10-16T08:49:16;14.30;99.90
20732;DHT22;10527;52.124;5.196;2022-10-16T08:51:44;14.30;99.90
20732;DHT22;10527;52.124;5.196;2022-10-16T08:57:04;14.60;99.90
20732;DHT22;10527;52.124;5.196;2022-10-16T08:59:37;14.90;99.90
20732;DHT22;10527;52.124;5.196;2022-10-16T09:02:24;15.10;99.90
20732;DHT22;10527;52.124;5.196;2022-10-16T09:05:17;15.40;99.90
20732;DHT22;10527;52.124;5.196;2022-10-16T09:08:01;15.50;99.90
20732;DHT22;10527;52.124;5.196;2022-10-16T09:16:32;16.00;99.90
20732;DHT22;10527;52.124;5.196;2022-10-16T09:19:29;16.20;99.90
20732;DHT22;10527;52.124;5.196;2022-10-16T09:22:08;16.10;99.90
20732;DHT22;10527;52.124;5.196;2022-10-16T09:24:42;16.00;99.90
20732;DHT22;10527;52.124;5.196;2022-10-16T09:27:14;16.00;99.90
20732;DHT22;10527;52.124;5.196;2022-10-16T09:29:41;15.90;99.90
20732;DHT22;10527;52.124;5.196;2022-10-16T09:32:28;15.90;99.90
20732;DHT22;10527;52.124;5.196;2022-10-16T09:34:55;16.10;99.90
20732;DHT22;10527;52.124;5.196;2022-10-16T09:37:25;16.40;99.90
20732;DHT22;10527;52.124;5.196;2022-10-16T09:39:53;16.40;99.90
20732;DHT22;10527;52.124;5.196;2022-10-16T09:42:41;16.40;99.90
20732;DHT22;10527;52.124;5.196;2022-10-16T09:45:21;16.50;99.90
20732;DHT22;10527;52.124;5.196;2022-10-16T09:47:50;16.60;99.90
20732;DHT22;10527;52.124;5.196;2022-10-16T09:50:25;16.50;99.90
20732;DHT22;10527;52.124;5.196;2022-10-16T09:53:26;16.70;99.90
20732;DHT22;10527;52.124;5.196;2022-10-16T09:56:05;16.60;99.90
20732;DHT22;10527;52.124;5.196;2022-10-16T09:58:42;16.70;99.90
20732;DHT22;10527;52.124;5.196;2022-10-16T10:01:19;16.70;99.90
20732;DHT22;10527;52.124;5.196;2022-10-16T10:03:47;16.70;99.90
20732;DHT22;10527;52.124;5.196;2022-10-16T10:06:25;16.90;99.90
20732;DHT22;10527;52.124;5.196;2022-10-16T10:09:19;17.10;99.90
20732;DHT22;10527;52.124;5.196;2022-10-16T10:11:52;16.90;99.90
20732;DHT22;10527;52.124;5.196;2022-10-16T10:19:53;17.00;99.90
20732;DHT22;10527;52.124;5.196;2022-10-16T10:22:43;17.00;99.90
20732;DHT22;10527;52.124;5.196;2022-10-16T10:25:24;16.80;99.90
20732;DHT22;10527;52.124;5.196;2022-10-16T10:33:46;17.10;99.90
20732;DHT22;10527;52.124;5.196;2022-10-16T10:39:15;17.10;99.90
20732;DHT22;10527;52.124;5.196;2022-10-16T10:45:04;17.50;99.90
20732;DHT22;10527;52.124;5.196;2022-10-16T10:50:49;17.80;99.90
20732;DHT22;10527;52.124;5.196;2022-10-16T11:05:25;17.30;99.90
20732;DHT22;10527;52.124;5.196;2022-10-16T11:11:01;16.80;99.90
20732;DHT22;10527;52.124;5.196;2022-10-16T11:22:04;17.10;99.90
20732;DHT22;10527;52.124;5.196;2022-10-16T11:24:56;16.80;99.90
20732;DHT22;10527;52.124;5.196;2022-10-16T11:28:00;17.00;99.90
20732;DHT22;10527;52.124;5.196;2022-10-16T11:30:52;17.30;99.90
20732;DHT22;10527;52.124;5.196;2022-10-16T11:37:08;17.40;99.90
20732;DHT22;10527;52.124;5.196;2022-10-16T11:39:39;17.50;99.90
20732;DHT22;10527;52.124;5.196;2022-10-16T11:42:27;17.40;99.90
20732;DHT22;10527;52.124;5.196;2022-10-16T11:45:35;17.60;99.90
20732;DHT22;10527;52.124;5.196;2022-10-16T11:48:18;17.70;99.90
20732;DHT22;10527;52.124;5.196;2022-10-16T11:51:14;17.40;99.90
20732;DHT22;10527;52.124;5.196;2022-10-16T11:53:56;17.30;99.90
20732;DHT22;10527;52.124;5.196;2022-10-16T11:56:30;17.10;99.90
20732;DHT22;10527;52.124;5.196;2022-10-16T11:59:13;17.00;99.90
20732;DHT22;10527;52.124;5.196;2022-10-16T12:02:28;17.00;99.90
20732;DHT22;10527;52.124;5.196;2022-10-16T12:05:09;17.30;99.90
20732;DHT22;10527;52.124;5.196;2022-10-16T12:10:40;17.30;99.90
20732;DHT22;10527;52.124;5.196;2022-10-16T12:13:31;17.30;99.90
20732;DHT22;10527;52.124;5.196;2022-10-16T12:18:40;17.70;99.90
20732;DHT22;10527;52.124;5.196;2022-10-16T12:21:09;17.90;99.90
20732;DHT22;10527;52.124;5.196;2022-10-16T12:24:00;18.00;99.90
20732;DHT22;10527;52.124;5.196;2022-10-16T12:26:33;18.20;99.90
20732;DHT22;10527;52.124;5.196;2022-10-16T12:29:33;18.20;99.90
20732;DHT22;10527;52.124;5.196;2022-10-16T12:32:04;18.30;99.90
20732;DHT22;10527;52.124;5.196;2022-10-16T12:35:17;18.40;99.90
20732;DHT22;10527;52.124;5.196;2022-10-16T12:37:46;18.30;99.90
20732;DHT22;10527;52.124;5.196;2022-10-16T12:40:29;18.30;99.90
20732;DHT22;10527;52.124;5.196;2022-10-16T12:42:59;18.30;99.90
20732;DHT22;10527;52.124;5.196;2022-10-16T12:45:29;18.20;99.90
20732;DHT22;10527;52.124;5.196;2022-10-16T12:48:02;17.90;99.90
20732;DHT22;10527;52.124;5.196;2022-10-16T12:50:45;17.90;99.90
20732;DHT22;10527;52.124;5.196;2022-10-16T12:53:24;17.80;99.90
20732;DHT22;10527;52.124;5.196;2022-10-16T13:04:50;18.00;99.90
20732;DHT22;10527;52.124;5.196;2022-10-16T13:10:36;18.00;99.90
20732;DHT22;10527;52.124;5.196;2022-10-16T13:16:46;18.10;99.90
20732;DHT22;10527;52.124;5.196;2022-10-16T13:28:15;18.00;99.90
20732;DHT22;10527;52.124;5.196;2022-10-16T13:30:53;18.10;99.90
20732;DHT22;10527;52.124;5.196;2022-10-16T13:33:36;18.10;99.90
20732;DHT22;10527;52.124;5.196;2022-10-16T13:36:06;18.20;99.90
20732;DHT22;10527;52.124;5.196;2022-10-16T13:38:45;18.20;99.90
20732;DHT22;10527;52.124;5.196;2022-10-16T13:41:17;18.10;99.90
20732;DHT22;10527;52.124;5.196;2022-10-16T13:43:52;18.10;99.90
20732;DHT22;10527;52.124;5.196;2022-10-16T13:46:24;18.10;99.90
20732;DHT22;10527;52.124;5.196;2022-10-16T13:49:03;18.00;99.90
20732;DHT22;10527;52.124;5.196;2022-10-16T13:51:38;17.90;99.90
20732;DHT22;10527;52.124;5.196;2022-10-16T13:54:04;18.00;99.90
20732;DHT22;10527;52.124;5.196;2022-10-16T13:56:32;17.80;99.90
20732;DHT22;10527;52.124;5.196;2022-10-16T13:59:04;17.90;99.90
20732;DHT22;10527;52.124;5.196;2022-10-16T14:01:35;17.90;99.90
20732;DHT22;10527;52.124;5.196;2022-10-16T14:04:17;17.80;99.90
20732;DHT22;10527;52.124;5.196;2022-10-16T14:06:46;17.80;99.90
20732;DHT22;10527;52.124;5.196;2022-10-16T14:09:30;17.80;99.90
20732;DHT22;10527;52.124;5.196;2022-10-16T14:12:10;17.80;99.90
20732;DHT22;10527;52.124;5.196;2022-10-16T14:14:44;17.90;99.90
20732;DHT22;10527;52.124;5.196;2022-10-16T14:17:27;17.80;99.90
20732;DHT22;10527;52.124;5.196;2022-10-16T14:19:58;17.80;99.90
20732;DHT22;10527;52.124;5.196;2022-10-16T14:22:40;17.80;99.90
20732;DHT22;10527;52.124;5.196;2022-10-16T14:25:25;17.80;99.90
20732;DHT22;10527;52.124;5.196;2022-10-16T14:30:28;17.80;99.90
20732;DHT22;10527;52.124;5.196;2022-10-16T14:33:05;17.80;99.90
20732;DHT22;10527;52.124;5.196;2022-10-16T14:35:45;17.90;99.90
20732;DHT22;10527;52.124;5.196;2022-10-16T14:38:19;17.90;99.90
20732;DHT22;10527;52.124;5.196;2022-10-16T14:40:48;17.90;99.90
20732;DHT22;10527;52.124;5.196;2022-10-16T14:43:26;17.80;99.90
20732;DHT22;10527;52.124;5.196;2022-10-16T14:46:15;17.90;99.90
20732;DHT22;10527;52.124;5.196;2022-10-16T14:48:50;17.90;99.90
20732;DHT22;10527;52.124;5.196;2022-10-16T14:51:18;17.90;99.90
20732;DHT22;10527;52.124;5.196;2022-10-16T14:53:47;17.90;99.90
20732;DHT22;10527;52.124;5.196;2022-10-16T14:56:22;17.90;99.90
20732;DHT22;10527;52.124;5.196;2022-10-16T14:58:53;17.90;99.90
20732;DHT22;10527;52.124;5.196;2022-10-16T15:01:21;18.00;99.90
20732;DHT22;10527;52.124;5.196;2022-10-16T15:03:48;18.00;99.90
20732;DHT22;10527;52.124;5.196;2022-10-16T15:06:16;18.00;99.90
20732;DHT22;10527;52.124;5.196;2022-10-16T15:08:43;18.10;99.90
20732;DHT22;10527;52.124;5.196;2022-10-16T15:11:18;18.10;99.90
20732;DHT22;10527;52.124;5.196;2022-10-16T15:13:46;18.10;99.90
20732;DHT22;10527;52.124;5.196;2022-10-16T15:16:15;18.10;99.90
20732;DHT22;10527;52.124;5.196;2022-10-16T15:18:43;18.10;99.90
20732;DHT22;10527;52.124;5.196;2022-10-16T15:21:31;18.00;99.90
20732;DHT22;10527;52.124;5.196;2022-10-16T15:23:59;18.10;99.90
20732;DHT22;10527;52.124;5.196;2022-10-16T15:26:28;18.10;99.90
20732;DHT22;10527;52.124;5.196;2022-10-16T15:28:57;18.10;99.90
20732;DHT22;10527;52.124;5.196;2022-10-16T15:31:24;18.10;99.90
20732;DHT22;10527;52.124;5.196;2022-10-16T15:33:52;18.10;99.90
20732;DHT22;10527;52.124;5.196;2022-10-16T15:36:33;18.10;99.90
20732;DHT22;10527;52.124;5.196;2022-10-16T15:39:04;18.00;99.90
20732;DHT22;10527;52.124;5.196;2022-10-16T15:41:32;18.00;99.90
20732;DHT22;10527;52.124;5.196;2022-10-16T15:43:59;18.00;99.90
20732;DHT22;10527;52.124;5.196;2022-10-16T15:46:25;18.00;99.90
20732;DHT22;10527;52.124;5.196;2022-10-16T15:48:57;18.00;99.90
20732;DHT22;10527;52.124;5.196;2022-10-16T15:51:28;17.90;99.90
20732;DHT22;10527;52.124;5.196;2022-10-16T15:53:56;17.90;99.90
20732;DHT22;10527;52.124;5.196;2022-10-16T15:56:23;17.90;99.90
20732;DHT22;10527;52.124;5.196;2022-10-16T15:58:52;17.90;99.90
20732;DHT22;10527;52.124;5.196;2022-10-16T16:01:20;17.90;99.90
20732;DHT22;10527;52.124;5.196;2022-10-16T16:03:47;17.80;99.90
20732;DHT22;10527;52.124;5.196;2022-10-16T16:06:19;17.80;99.90
20732;DHT22;10527;52.124;5.196;2022-10-16T16:08:46;17.70;99.90
20732;DHT22;10527;52.124;5.196;2022-10-16T16:11:14;17.70;99.90
20732;DHT22;10527;52.124;5.196;2022-10-16T16:13:43;17.60;99.90
20732;DHT22;10527;52.124;5.196;2022-10-16T16:16:13;17.50;99.90
20732;DHT22;10527;52.124;5.196;2022-10-16T16:18:42;17.50;99.90
20732;DHT22;10527;52.124;5.196;2022-10-16T16:21:12;17.60;99.90
20732;DHT22;10527;52.124;5.196;2022-10-16T16:23:39;17.50;99.90
20732;DHT22;10527;52.124;5.196;2022-10-16T16:26:13;17.50;99.90
20732;DHT22;10527;52.124;5.196;2022-10-16T16:28:48;17.40;99.90
20732;DHT22;10527;52.124;5.196;2022-10-16T16:31:14;17.40;99.90
20732;DHT22;10527;52.124;5.196;2022-10-16T16:33:41;17.30;99.90
20732;DHT22;10527;52.124;5.196;2022-10-16T16:36:08;17.30;99.90
20732;DHT22;10527;52.124;5.196;2022-10-16T16:38:41;17.40;99.90
20732;DHT22;10527;52.124;5.196;2022-10-16T16:41:13;17.30;99.90
20732;DHT22;10527;52.124;5.196;2022-10-16T16:43:41;17.30;99.90
20732;DHT22;10527;52.124;5.196;2022-10-16T16:46:08;17.30;99.90
20732;DHT22;10527;52.124;5.196;2022-10-16T16:48:37;17.30;99.90
20732;DHT22;10527;52.124;5.196;2022-10-16T16:51:13;17.20;99.90
20732;DHT22;10527;52.124;5.196;2022-10-16T16:53:58;17.20;99.90
20732;DHT22;10527;52.124;5.196;2022-10-16T16:56:25;17.10;99.90
20732;DHT22;10527;52.124;5.196;2022-10-16T16:58:55;17.00;99.90
20732;DHT22;10527;52.124;5.196;2022-10-16T17:01:25;17.00;99.90
20732;DHT22;10527;52.124;5.196;2022-10-16T17:03:55;16.90;99.90
20732;DHT22;10527;52.124;5.196;2022-10-16T17:06:33;17.00;99.90
20732;DHT22;10527;52.124;5.196;2022-10-16T17:09:01;16.80;99.90
20732;DHT22;10527;52.124;5.196;2022-10-16T17:11:30;16.80;99.90
20732;DHT22;10527;52.124;5.196;2022-10-16T17:14:00;16.70;99.90
20732;DHT22;10527;52.124;5.196;2022-10-16T17:16:30;16.70;99.90
20732;DHT22;10527;52.124;5.196;2022-10-16T17:19:05;16.70;99.90
20732;DHT22;10527;52.124;5.196;2022-10-16T17:21:34;16.60;99.90
20732;DHT22;10527;52.124;5.196;2022-10-16T17:24:04;16.60;99.90
20732;DHT22;10527;52.124;5.196;2022-10-16T17:26:32;16.60;99.90
20732;DHT22;10527;52.124;5.196;2022-10-16T17:29:00;16.60;99.90
20732;DHT22;10527;52.124;5.196;2022-10-16T17:31:32;16.50;99.90
20732;DHT22;10527;52.124;5.196;2022-10-16T17:34:02;16.50;99.90
20732;DHT22;10527;52.124;5.196;2022-10-16T17:36:33;16.50;99.90
20732;DHT22;10527;52.124;5.196;2022-10-16T17:39:04;16.50;99.90
20732;DHT22;10527;52.124;5.196;2022-10-16T17:41:35;16.50;99.90
20732;DHT22;10527;52.124;5.196;2022-10-16T17:44:03;16.50;99.90
20732;DHT22;10527;52.124;5.196;2022-10-16T17:46:32;16.50;99.90
20732;DHT22;10527;52.124;5.196;2022-10-16T17:49:05;16.50;99.90